Terminal Aerodrome Forecast
Issued by NWS

Home | Current Version | Previous Version | Text Only | Print | Product List | Glossary Off
Versions: 1 2 3 4 5 6 7 8 9 10 11 12 13 14

000
FTUS43 KICT 250538
TAFHUT
TAF
KHUT 250538Z 2506/2606 34009KT P6SM SKC
     FM251500 32007KT P6SM BKN150
     FM251800 20007KT P6SM SCT150=

USA.gov is the U.S. government's official web portal to all federal, state and local government web resources and services.